Time;durP1;ratioP1;P1;durP2;ratioP2;P2;SDS_P1;SDS_P2;PMS_P1;PMS_P2;Temp;Humidity;BMP_temperature;BMP_pressure;BME280_temperature;BME280_humidity;BME280_pressure;Samples;Min_cycle;Max_cycle;Signal;HPM_P1;HPM_P2
2024/03/25 00:03:33;;;;;;;1.30;1.20;;;8.40;39.60;;;;;;10384052;28;20709;-72
2024/03/25 00:08:36;;;;;;;1.50;1.23;;;8.40;39.60;;;;;;10385533;28;20253;-73
2024/03/25 00:13:40;;;;;;;1.20;1.10;;;8.40;39.60;;;;;;10387514;28;20305;-72
2024/03/25 00:18:42;;;;;;;1.77;1.20;;;8.30;39.50;;;;;;10389417;28;20245;-72
2024/03/25 00:23:44;;;;;;;3.30;1.30;;;8.40;39.60;;;;;;10383308;28;20292;-72
2024/03/25 00:28:48;;;;;;;1.37;1.27;;;8.40;39.60;;;;;;10380691;28;20253;-72
2024/03/25 00:33:50;;;;;;;2.30;1.10;;;8.40;39.60;;;;;;10384783;28;20254;-72
2024/03/25 00:38:52;;;;;;;1.57;1.30;;;8.40;39.60;;;;;;10388266;28;20245;-72
2024/03/25 00:43:55;;;;;;;1.37;1.30;;;8.50;39.70;;;;;;10385338;28;20339;-72
2024/03/25 00:48:58;;;;;;;1.90;1.37;;;8.50;39.70;;;;;;10382724;28;20245;-72
2024/03/25 00:54:01;;;;;;;2.03;1.50;;;8.50;39.30;;;;;;10389214;28;20825;-72
2024/03/25 00:59:05;;;;;;;1.70;1.37;;;8.50;39.50;;;;;;10383626;28;20258;-72
2024/03/25 01:04:07;;;;;;;1.57;1.40;;;8.50;39.70;;;;;;10386747;28;20356;-73
2024/03/25 01:09:10;;;;;;;2.77;1.43;;;8.50;39.50;;;;;;10371312;28;20257;-72
2024/03/25 01:14:14;;;;;;;3.00;1.33;;;8.50;39.40;;;;;;10387195;28;20253;-72
2024/03/25 01:19:16;;;;;;;2.03;1.50;;;8.50;39.60;;;;;;10389830;28;20245;-72
2024/03/25 01:24:18;;;;;;;1.90;1.50;;;8.50;39.50;;;;;;10376469;28;20327;-72
2024/03/25 01:29:22;;;;;;;2.57;1.30;;;8.50;39.30;;;;;;10384327;28;20276;-72
2024/03/25 01:34:24;;;;;;;1.73;1.60;;;8.60;39.50;;;;;;10379222;28;20252;-72
2024/03/25 01:39:26;;;;;;;3.10;1.40;;;8.50;39.20;;;;;;10379337;28;20314;-72
2024/03/25 01:44:29;;;;;;;1.43;1.33;;;8.50;39.40;;;;;;10388249;28;20249;-72
2024/03/25 01:49:32;;;;;;;2.63;1.47;;;8.50;39.60;;;;;;10386206;28;20272;-72
2024/03/25 01:54:35;;;;;;;1.93;1.40;;;8.50;39.60;;;;;;10381494;28;20740;-72
2024/03/25 01:59:39;;;;;;;1.60;1.50;;;8.50;39.40;;;;;;10377399;28;20307;-72
2024/03/25 02:04:43;;;;;;;2.33;1.40;;;8.50;39.70;;;;;;10379782;28;20237;-72
2024/03/25 02:09:46;;;;;;;2.20;1.50;;;8.50;39.70;;;;;;10367859;28;20290;-72
2024/03/25 02:14:50;;;;;;;2.40;1.70;;;8.60;39.70;;;;;;10338757;28;20794;-72
2024/03/25 02:19:52;;;;;;;2.40;1.47;;;8.60;39.70;;;;;;10341512;28;20274;-72
2024/03/25 02:24:57;;;;;;;2.60;1.60;;;8.60;39.40;;;;;;10345562;28;20680;-72
2024/03/25 02:30:05;;;;;;;2.83;1.37;;;8.60;39.50;;;;;;10339405;28;20269;-72
2024/03/25 02:35:11;;;;;;;2.60;1.63;;;8.60;39.70;;;;;;10351737;28;20258;-72
2024/03/25 02:40:13;;;;;;;2.63;1.47;;;8.60;39.70;;;;;;10378221;28;20319;-72
2024/03/25 02:45:17;;;;;;;2.23;1.40;;;8.60;39.60;;;;;;10370404;28;20257;-72
2024/03/25 02:50:19;;;;;;;2.40;1.47;;;8.60;39.70;;;;;;10359748;28;20332;-73
2024/03/25 02:55:21;;;;;;;2.70;1.50;;;8.60;39.50;;;;;;10347283;28;20269;-73
2024/03/25 03:00:25;;;;;;;3.53;1.73;;;8.50;39.60;;;;;;10338817;28;20722;-72
2024/03/25 03:05:27;;;;;;;2.97;1.50;;;8.50;40.40;;;;;;10341940;28;20758;-72
2024/03/25 03:10:29;;;;;;;1.53;1.37;;;8.50;39.60;;;;;;10334921;28;20778;-72
2024/03/25 03:15:33;;;;;;;1.63;1.53;;;8.50;39.60;;;;;;10335969;28;20245;-72
2024/03/25 03:20:35;;;;;;;1.47;1.37;;;8.50;39.70;;;;;;10337758;28;20262;-72
2024/03/25 03:25:37;;;;;;;2.60;1.70;;;8.50;39.50;;;;;;10333840;28;21163;-72
2024/03/25 03:30:41;;;;;;;3.90;1.90;;;8.60;39.50;;;;;;10345469;28;20238;-72
2024/03/25 03:35:43;;;;;;;2.60;1.57;;;8.50;39.70;;;;;;10351729;28;20761;-72
2024/03/25 03:40:56;;;;;;;4.27;1.90;;;8.50;39.70;;;;;;10345026;28;21016;-72
2024/03/25 03:45:59;;;;;;;2.40;2.20;;;8.60;39.70;;;;;;10362125;28;20288;-72
2024/03/25 03:51:02;;;;;;;4.87;4.40;;;8.50;39.70;;;;;;10355664;28;20665;-72
2024/03/25 03:56:06;;;;;;;4.73;4.33;;;8.50;39.70;;;;;;10356699;28;20254;-73
2024/03/25 04:01:17;;;;;;;3.00;2.70;;;8.50;39.70;;;;;;10366531;28;20249;-72
2024/03/25 04:06:19;;;;;;;3.80;2.50;;;8.50;39.70;;;;;;10346252;28;20242;-72
2024/03/25 04:11:21;;;;;;;3.00;2.10;;;8.50;39.70;;;;;;10348829;28;20249;-73
2024/03/25 04:16:24;;;;;;;2.27;2.03;;;8.60;39.70;;;;;;10386629;28;20272;-72
2024/03/25 04:21:27;;;;;;;2.20;2.00;;;8.60;39.70;;;;;;10388642;28;20956;-72
2024/03/25 04:26:29;;;;;;;4.33;2.20;;;8.50;39.70;;;;;;10387468;28;20308;-72
2024/03/25 04:31:32;;;;;;;4.60;2.30;;;8.50;39.70;;;;;;10386124;28;20276;-72
2024/03/25 04:36:35;;;;;;;3.37;2.30;;;8.50;39.70;;;;;;10388696;28;20271;-72
